Time;durP1;ratioP1;P1;durP2;ratioP2;P2;SDS_P1;SDS_P2;PMS_P1;PMS_P2;Temp;Humidity;BMP_temperature;BMP_pressure;BME280_temperature;BME280_humidity;BME280_pressure;Samples;Min_cycle;Max_cycle;Signal;HPM_P1;HPM_P2
2022/12/08 00:01:57;;;;;;;5.15;1.25;;;2.30;99.90;;;;;;5058547;28;20452;-60
2022/12/08 00:04:23;;;;;;;4.30;1.40;;;2.30;99.90;;;;;;5094083;28;20040;-61
2022/12/08 00:09:35;;;;;;;2.57;1.10;;;2.30;99.90;;;;;;5094412;28;20040;-62
2022/12/08 00:12:08;;;;;;;3.63;1.42;;;2.30;99.90;;;;;;5087552;28;20086;-61
2022/12/08 00:14:36;;;;;;;6.80;1.45;;;2.30;99.90;;;;;;5094020;28;20071;-62
2022/12/08 00:17:03;;;;;;;5.10;1.83;;;2.30;99.90;;;;;;5079286;28;20370;-62
2022/12/08 00:19:29;;;;;;;4.95;1.90;;;2.30;99.90;;;;;;5087080;28;20036;-59
2022/12/08 00:21:55;;;;;;;2.40;1.40;;;2.40;99.90;;;;;;5079861;28;20072;-63
2022/12/08 00:24:25;;;;;;;5.07;1.60;;;2.40;99.90;;;;;;5092991;28;20599;-62
2022/12/08 00:26:51;;;;;;;4.47;1.70;;;2.40;99.90;;;;;;5092762;28;20083;-62
2022/12/08 00:29:17;;;;;;;5.18;1.63;;;2.40;99.90;;;;;;5091857;28;20414;-63
2022/12/08 00:31:42;;;;;;;5.28;2.17;;;2.50;99.90;;;;;;5088259;28;20051;-62
2022/12/08 00:34:08;;;;;;;6.45;1.58;;;2.50;99.90;;;;;;5089099;28;20111;-62
2022/12/08 00:36:34;;;;;;;6.47;1.40;;;2.50;99.90;;;;;;5089621;28;20032;-61
2022/12/08 00:38:59;;;;;;;4.45;1.52;;;2.50;99.90;;;;;;5065166;28;20641;-58
2022/12/08 00:44:14;;;;;;;9.05;1.73;;;2.50;99.90;;;;;;5072651;28;20040;-62
2022/12/08 00:46:41;;;;;;;5.47;1.90;;;2.60;99.90;;;;;;5090470;28;20040;-63
2022/12/08 00:49:07;;;;;;;8.20;2.25;;;2.60;99.90;;;;;;5093680;28;20032;-60
2022/12/08 00:51:33;;;;;;;8.45;1.90;;;2.60;99.90;;;;;;5090360;28;20082;-61
2022/12/08 00:53:59;;;;;;;6.65;1.75;;;2.60;99.90;;;;;;5074730;28;20048;-60
2022/12/08 00:56:25;;;;;;;7.78;2.10;;;2.70;99.90;;;;;;5093512;28;20064;-61
2022/12/08 00:58:50;;;;;;;6.03;2.20;;;2.70;99.90;;;;;;5074926;28;20079;-60
2022/12/08 01:01:16;;;;;;;7.28;2.28;;;2.60;99.90;;;;;;5091443;28;20098;-60
2022/12/08 01:03:42;;;;;;;7.32;2.10;;;2.70;99.90;;;;;;5089910;28;20133;-63
2022/12/08 01:06:08;;;;;;;5.90;2.10;;;2.80;99.90;;;;;;5093171;28;20119;-60
2022/12/08 01:08:36;;;;;;;8.18;2.13;;;2.90;99.90;;;;;;5078575;28;20105;-60
2022/12/08 01:11:14;;;;;;;6.63;1.90;;;2.90;99.90;;;;;;5093178;28;20039;-61
2022/12/08 01:13:39;;;;;;;7.45;2.00;;;2.90;99.90;;;;;;5088037;28;20417;-63
2022/12/08 01:16:05;;;;;;;7.18;2.70;;;2.90;99.90;;;;;;5093165;28;20123;-62
2022/12/08 01:18:32;;;;;;;7.30;1.95;;;3.00;99.90;;;;;;5093062;28;20048;-63
2022/12/08 01:21:05;;;;;;;7.00;2.10;;;2.90;99.90;;;;;;5092978;28;20123;-62
2022/12/08 01:23:31;;;;;;;5.85;2.30;;;2.90;99.90;;;;;;5072794;28;20059;-62
2022/12/08 01:26:05;;;;;;;5.55;1.90;;;3.00;99.90;;;;;;5090729;28;20186;-61
2022/12/08 01:28:31;;;;;;;3.90;1.85;;;3.10;99.90;;;;;;5092363;28;20048;-62
2022/12/08 01:31:01;;;;;;;9.23;2.63;;;3.20;99.90;;;;;;5092383;28;20043;-62
2022/12/08 01:33:27;;;;;;;3.35;1.70;;;3.20;99.90;;;;;;5083312;28;20086;-59
2022/12/08 01:35:54;;;;;;;6.97;1.75;;;3.20;99.90;;;;;;5077621;28;20457;-60
2022/12/08 01:38:20;;;;;;;5.15;1.73;;;3.20;99.90;;;;;;5073532;28;20040;-62
2022/12/08 01:40:46;;;;;;;5.70;2.10;;;3.20;99.90;;;;;;5082644;28;20040;-63
2022/12/08 01:43:17;;;;;;;5.35;1.80;;;3.30;99.90;;;;;;5077760;28;20360;-60
2022/12/08 01:45:43;;;;;;;4.28;1.60;;;3.30;99.90;;;;;;5091487;28;20500;-61
2022/12/08 01:48:29;;;;;;;5.22;1.30;;;3.40;99.90;;;;;;5059736;28;20088;-61
2022/12/08 01:50:56;;;;;;;4.78;1.38;;;3.40;99.90;;;;;;5091305;28;20460;-62
2022/12/08 01:53:29;;;;;;;4.00;1.65;;;3.40;99.90;;;;;;5073635;28;20051;-60
2022/12/08 01:56:22;;;;;;;5.28;1.80;;;3.40;99.90;;;;;;5080487;28;20491;-63
2022/12/08 01:58:50;;;;;;;7.97;1.95;;;3.30;99.90;;;;;;5091685;28;20115;-58
2022/12/08 02:01:16;;;;;;;5.72;1.80;;;3.30;99.90;;;;;;5091233;28;20181;-60
2022/12/08 02:03:50;;;;;;;7.00;2.00;;;3.20;99.90;;;;;;5088633;28;20119;-60
2022/12/08 02:06:18;;;;;;;4.30;2.03;;;3.20;99.90;;;;;;5091991;28;20055;-63
2022/12/08 02:08:45;;;;;;;7.45;2.13;;;3.10;99.90;;;;;;5091831;28;20180;-59
2022/12/08 02:11:12;;;;;;;4.65;1.95;;;3.20;99.90;;;;;;5082928;28;20044;-63
2022/12/08 02:13:40;;;;;;;6.22;2.42;;;3.30;99.90;;;;;;5053803;28;20087;-63
2022/12/08 02:16:20;;;;;;;9.57;2.72;;;3.20;99.90;;;;;;5091714;28;20028;-61
2022/12/08 02:18:56;;;;;;;10.27;4.10;;;3.30;99.90;;;;;;5089741;28;20040;-61
2022/12/08 02:21:33;;;;;;;12.27;4.43;;;3.40;99.90;;;;;;5078931;28;20054;-64
2022/12/08 02:24:22;;;;;;;13.27;4.93;;;3.50;99.90;;;;;;5088278;28;20040;-61
2022/12/08 02:27:11;;;;;;;11.77;4.25;;;3.50;99.90;;;;;;5082061;28;20080;-61
2022/12/08 02:30:03;;;;;;;8.93;3.30;;;3.60;99.90;;;;;;5072402;28;20040;-63
2022/12/08 02:33:04;;;;;;;8.27;2.92;;;3.50;99.90;;;;;;5083901;28;20056;-62
2022/12/08 02:39:17;;;;;;;5.80;3.35;;;3.50;99.90;;;;;;5074035;28;20043;-64
2022/12/08 02:42:00;;;;;;;7.03;2.55;;;3.50;99.90;;;;;;5086234;28;20484;-62
2022/12/08 02:44:44;;;;;;;5.63;2.47;;;3.50;99.90;;;;;;5083447;28;20036;-60
2022/12/08 02:47:20;;;;;;;9.50;3.88;;;3.50;99.90;;;;;;5065179;28;20036;-63
2022/12/08 02:49:46;;;;;;;8.82;3.20;;;3.60;99.90;;;;;;5091049;28;20050;-60
2022/12/08 02:52:12;;;;;;;9.25;4.55;;;3.60;99.90;;;;;;5089101;28;20032;-61
2022/12/08 02:54:40;;;;;;;10.50;3.75;;;3.60;99.90;;;;;;5091022;28;20535;-63
2022/12/08 02:57:06;;;;;;;7.35;3.80;;;3.60;99.90;;;;;;5091046;28;20044;-63
2022/12/08 03:00:03;;;;;;;9.25;3.10;;;3.60;99.90;;;;;;5054654;28;20044;-59
2022/12/08 03:02:44;;;;;;;5.85;2.47;;;3.60;99.90;;;;;;5072372;28;20059;-61
2022/12/08 03:05:32;;;;;;;5.55;2.40;;;3.60;99.90;;;;;;5091085;28;20056;-63
2022/12/08 03:08:19;;;;;;;6.43;2.95;;;3.50;99.90;;;;;;5090865;28;20055;-61
2022/12/08 03:11:23;;;;;;;6.35;2.50;;;3.50;99.90;;;;;;5091132;28;20146;-59
2022/12/08 03:13:51;;;;;;;6.05;2.88;;;3.40;99.90;;;;;;5066051;28;20040;-59
2022/12/08 03:16:22;;;;;;;7.13;2.97;;;3.50;99.90;;;;;;5091024;28;20039;-60
2022/12/08 03:18:53;;;;;;;4.80;2.90;;;3.40;99.90;;;;;;5090776;28;20463;-59
2022/12/08 03:21:20;;;;;;;7.05;3.05;;;3.40;99.90;;;;;;5090462;28;20040;-61
2022/12/08 03:23:50;;;;;;;7.80;3.10;;;3.30;99.90;;;;;;5084546;28;20055;-58
2022/12/08 03:26:37;;;;;;;8.02;3.13;;;3.30;99.90;;;;;;5090272;28;20503;-61
2022/12/08 03:29:04;;;;;;;8.32;2.80;;;3.30;99.90;;;;;;5090555;28;20202;-61
2022/12/08 03:31:34;;;;;;;6.43;2.90;;;3.20;99.90;;;;;;5088818;28;20141;-58
2022/12/08 03:34:02;;;;;;;7.55;3.05;;;3.20;99.90;;;;;;5085170;28;20127;-59
2022/12/08 03:36:27;;;;;;;6.57;3.58;;;3.20;99.90;;;;;;5087738;28;20036;-58
2022/12/08 03:38:53;;;;;;;6.78;2.50;;;3.30;99.90;;;;;;5079338;28;20096;-59
2022/12/08 03:41:21;;;;;;;6.03;2.53;;;3.30;99.90;;;;;;5076159;28;20040;-60
2022/12/08 03:43:48;;;;;;;11.07;5.00;;;3.40;99.90;;;;;;5077304;28;20097;-60
2022/12/08 03:46:15;;;;;;;11.43;3.60;;;3.40;99.90;;;;;;5090843;28;20046;-58
2022/12/08 03:48:40;;;;;;;9.13;3.60;;;3.40;99.90;;;;;;5090462;28;20032;-59
2022/12/08 03:51:07;;;;;;;4.43;2.05;;;3.30;99.90;;;;;;5090453;28;20059;-61
2022/12/08 03:53:32;;;;;;;4.78;1.67;;;3.40;99.90;;;;;;5074905;28;20040;-59
2022/12/08 03:55:58;;;;;;;7.15;1.98;;;3.40;99.90;;;;;;5090788;28;20306;-58
2022/12/08 03:58:23;;;;;;;3.55;1.33;;;3.30;99.90;;;;;;5090349;28;20043;-58
2022/12/08 04:00:49;;;;;;;5.25;1.40;;;3.40;99.90;;;;;;5083251;28;20044;-62
2022/12/08 04:03:14;;;;;;;6.35;1.83;;;3.30;99.90;;;;;;5085183;28;20078;-60
2022/12/08 04:05:40;;;;;;;12.32;5.55;;;3.40;99.90;;;;;;5093483;28;20121;-64
2022/12/08 04:08:05;;;;;;;11.13;3.70;;;3.40;99.90;;;;;;5094246;28;20059;-60
2022/12/08 04:10:31;;;;;;;16.23;7.25;;;3.40;99.90;;;;;;5094708;28;20036;-61
2022/12/08 04:12:57;;;;;;;9.02;3.35;;;3.40;99.90;;;;;;5081003;28;20121;-60
2022/12/08 04:15:22;;;;;;;11.02;4.80;;;3.30;99.90;;;;;;5057037;28;20424;-62
2022/12/08 04:17:48;;;;;;;7.18;3.22;;;3.40;99.90;;;;;;5094122;28;20093;-62
2022/12/08 04:20:13;;;;;;;7.47;3.17;;;3.40;99.90;;;;;;5094051;28;20055;-61
2022/12/08 04:22:39;;;;;;;4.97;2.58;;;3.40;99.90;;;;;;5087844;28;20051;-61
2022/12/08 04:25:05;;;;;;;3.70;1.58;;;3.40;99.90;;;;;;5093722;28;20126;-61
2022/12/08 04:27:31;;;;;;;3.38;1.60;;;3.40;99.90;;;;;;5090298;28;20057;-60
2022/12/08 04:29:57;;;;;;;3.17;1.80;;;3.30;99.90;;;;;;5082761;28;20115;-61
2022/12/08 04:32:22;;;;;;;3.47;1.27;;;3.40;99.90;;;;;;5084451;28;20083;-58
2022/12/08 04:34:48;;;;;;;4.47;1.52;;;3.30;99.90;;;;;;5078877;28;20059;-61
2022/12/08 04:37:13;;;;;;;4.70;1.85;;;3.30;99.90;;;;;;5083896;28;20044;-59
2022/12/08 04:43:29;;;;;;;8.00;2.60;;;3.30;99.90;;;;;;5079654;28;20487;-59
2022/12/08 04:45:58;;;;;;;2.88;1.50;;;3.30;99.90;;;;;;5093280;28;20056;-60
2022/12/08 04:48:23;;;;;;;4.68;2.20;;;3.20;99.90;;;;;;5090261;28;20040;-60
2022/12/08 04:50:49;;;;;;;5.15;2.08;;;3.20;99.90;;;;;;5082328;28;20109;-62
2022/12/08 04:53:14;;;;;;;4.72;2.22;;;3.20;99.90;;;;;;5078406;28;20470;-61
2022/12/08 04:55:44;;;;;;;16.88;8.18;;;3.20;99.90;;;;;;5092939;28;20068;-58
2022/12/08 04:58:16;;;;;;;30.58;8.65;;;3.30;99.90;;;;;;5092940;28;20086;-63
2022/12/08 05:00:45;;;;;;;23.10;9.55;;;3.20;99.90;;;;;;5065776;28;20112;-61
2022/12/08 05:03:11;;;;;;;14.43;4.68;;;3.30;99.90;;;;;;5077369;28;20052;-58
2022/12/08 05:05:37;;;;;;;26.30;7.70;;;3.30;99.90;;;;;;5091803;28;20036;-59
2022/12/08 05:08:03;;;;;;;16.58;6.40;;;3.30;99.90;;;;;;5092780;28;20463;-62
2022/12/08 05:10:29;;;;;;;15.13;5.65;;;3.20;99.90;;;;;;5061069;28;20078;-58
2022/12/08 05:12:58;;;;;;;20.38;5.45;;;3.30;99.90;;;;;;5088948;28;20044;-60
2022/12/08 05:15:24;;;;;;;7.00;1.67;;;3.30;99.90;;;;;;5092522;28;20044;-62
2022/12/08 05:17:50;;;;;;;6.35;1.55;;;3.40;99.90;;;;;;5093739;28;20363;-62
2022/12/08 05:20:15;;;;;;;4.82;0.63;;;3.30;99.90;;;;;;5093500;28;20372;-60
2022/12/08 05:22:41;;;;;;;1.80;0.60;;;3.40;99.90;;;;;;5086846;28;20051;-60
2022/12/08 05:25:07;;;;;;;3.63;0.75;;;3.30;99.90;;;;;;5092375;28;20047;-58
2022/12/08 05:27:33;;;;;;;4.20;1.02;;;3.30;99.90;;;;;;5077523;28;20422;-60
2022/12/08 05:29:58;;;;;;;3.53;0.70;;;3.20;99.90;;;;;;5092663;28;20063;-59
2022/12/08 05:32:24;;;;;;;1.80;0.57;;;3.20;99.90;;;;;;5085404;28;20037;-60
2022/12/08 05:34:50;;;;;;;3.15;1.20;;;3.20;99.90;;;;;;5092228;28;20413;-59
2022/12/08 05:37:15;;;;;;;1.10;0.38;;;3.30;99.90;;;;;;5082702;28;20468;-61
2022/12/08 05:39:41;;;;;;;1.85;0.60;;;3.20;99.90;;;;;;5088153;28;20104;-60
2022/12/08 05:42:06;;;;;;;1.70;0.50;;;3.20;99.90;;;;;;5084214;28;20126;-61
2022/12/08 05:44:32;;;;;;;2.80;0.75;;;3.20;99.90;;;;;;5082848;28;20440;-61
2022/12/08 05:46:58;;;;;;;1.15;0.25;;;3.20;99.90;;;;;;5073267;28;20035;-60
2022/12/08 05:49:23;;;;;;;1.05;0.30;;;3.10;99.90;;;;;;5092090;28;20035;-60
2022/12/08 05:51:49;;;;;;;2.08;0.43;;;3.20;99.90;;;;;;5069311;28;20044;-60
2022/12/08 05:54:14;;;;;;;1.60;0.47;;;3.20;99.90;;;;;;5088996;28;20039;-59
2022/12/08 05:56:40;;;;;;;2.17;0.80;;;3.10;99.90;;;;;;5087473;28;20042;-63
2022/12/08 05:59:06;;;;;;;5.22;0.73;;;3.10;99.90;;;;;;5089047;28;20057;-58
2022/12/08 06:01:32;;;;;;;3.42;0.82;;;3.10;99.90;;;;;;5090646;28;20040;-63
2022/12/08 06:03:59;;;;;;;2.50;0.80;;;3.10;99.90;;;;;;5071074;28;20465;-62
2022/12/08 06:06:25;;;;;;;3.03;0.68;;;3.10;99.90;;;;;;5045887;28;20089;-62
2022/12/08 06:08:51;;;;;;;2.45;0.80;;;3.10;99.90;;;;;;5072072;28;20066;-61
2022/12/08 06:11:23;;;;;;;3.72;1.30;;;3.10;99.90;;;;;;5054659;28;20036;-62
2022/12/08 06:13:49;;;;;;;0.68;0.65;;;3.10;99.90;;;;;;5071646;28;20040;-62
2022/12/08 06:16:16;;;;;;;2.78;0.40;;;3.10;99.90;;;;;;5087103;28;20415;-60
2022/12/08 06:18:42;;;;;;;2.28;1.00;;;3.10;99.90;;;;;;5089625;28;20119;-60
2022/12/08 06:21:11;;;;;;;1.80;0.40;;;3.10;99.90;;;;;;5079975;28;20174;-61
2022/12/08 06:23:37;;;;;;;3.10;1.08;;;3.20;99.90;;;;;;5081957;28;20127;-59
2022/12/08 06:26:07;;;;;;;3.88;1.00;;;3.10;99.90;;;;;;5071694;28;20561;-62
2022/12/08 06:28:33;;;;;;;3.15;1.00;;;3.00;99.90;;;;;;5072004;28;20041;-62
2022/12/08 06:30:59;;;;;;;2.08;0.60;;;3.10;99.90;;;;;;5053961;28;20045;-63
2022/12/08 06:33:25;;;;;;;4.75;0.98;;;3.10;99.90;;;;;;5071521;28;20043;-63
2022/12/08 06:35:51;;;;;;;2.83;0.65;;;3.00;99.90;;;;;;5070538;28;20064;-61
2022/12/08 06:38:18;;;;;;;3.25;1.30;;;3.00;99.90;;;;;;5070401;28;20063;-62
2022/12/08 06:40:43;;;;;;;4.53;1.33;;;3.10;99.90;;;;;;5070667;28;20158;-63
2022/12/08 06:43:09;;;;;;;3.78;1.05;;;3.10;99.90;;;;;;5074184;28;20044;-65
2022/12/08 06:45:35;;;;;;;2.42;0.82;;;3.10;99.90;;;;;;5082794;28;20059;-64
2022/12/08 06:48:01;;;;;;;4.93;1.00;;;3.10;99.90;;;;;;5084793;28;20033;-62
2022/12/08 06:50:27;;;;;;;6.18;1.60;;;3.10;99.90;;;;;;5091776;28;20107;-60
2022/12/08 06:52:53;;;;;;;2.40;0.80;;;3.10;99.90;;;;;;5058103;28;20437;-61
2022/12/08 06:55:19;;;;;;;5.45;1.40;;;3.10;99.90;;;;;;5086121;28;20116;-63
2022/12/08 06:57:45;;;;;;;6.72;1.95;;;3.10;99.90;;;;;;5081533;28;20463;-62
2022/12/08 07:00:11;;;;;;;7.85;1.50;;;3.10;99.90;;;;;;5091225;28;20040;-62
2022/12/08 07:02:36;;;;;;;13.95;3.53;;;3.20;99.90;;;;;;5082792;28;20047;-61
2022/12/08 07:05:02;;;;;;;13.82;4.45;;;3.20;99.90;;;;;;5067628;28;20048;-61
2022/12/08 07:07:28;;;;;;;8.48;1.63;;;3.20;99.90;;;;;;5092015;28;20044;-61
2022/12/08 07:09:53;;;;;;;15.70;5.65;;;3.20;99.90;;;;;;5091027;28;20066;-60
2022/12/08 07:12:19;;;;;;;20.73;6.88;;;3.20;99.90;;;;;;5089027;28;20103;-61
2022/12/08 07:14:45;;;;;;;13.70;3.58;;;3.30;99.90;;;;;;5081479;28;20109;-63
2022/12/08 07:17:10;;;;;;;7.93;1.92;;;3.30;99.90;;;;;;5037392;28;20044;-62
2022/12/08 07:19:36;;;;;;;10.30;1.85;;;3.30;99.90;;;;;;5080403;28;20120;-61
2022/12/08 07:22:01;;;;;;;3.20;1.15;;;3.30;99.90;;;;;;5087635;28;20425;-63
2022/12/08 07:24:27;;;;;;;7.90;2.58;;;3.30;99.90;;;;;;5092610;28;20042;-61
2022/12/08 07:26:52;;;;;;;14.57;4.43;;;3.20;99.90;;;;;;5092259;28;20044;-60
2022/12/08 07:29:18;;;;;;;22.55;6.05;;;3.20;99.90;;;;;;5092123;28;20088;-61
2022/12/08 07:31:44;;;;;;;11.77;3.95;;;3.20;99.90;;;;;;5090188;28;20571;-62
2022/12/08 07:34:11;;;;;;;14.50;3.45;;;3.20;99.90;;;;;;5073646;28;20047;-65
2022/12/08 07:36:39;;;;;;;7.63;1.75;;;3.20;99.90;;;;;;5089516;28;20040;-62
2022/12/08 07:39:05;;;;;;;7.80;2.40;;;3.20;99.90;;;;;;5086175;28;20056;-61
2022/12/08 07:41:32;;;;;;;5.85;1.67;;;3.30;99.90;;;;;;5075535;28;20095;-62
2022/12/08 07:43:58;;;;;;;8.90;2.20;;;3.20;99.90;;;;;;5065882;28;20036;-62
2022/12/08 07:46:25;;;;;;;6.75;2.00;;;3.10;99.90;;;;;;5094273;28;20055;-59
2022/12/08 07:48:56;;;;;;;5.82;1.08;;;3.10;99.90;;;;;;5095406;28;20062;-62
2022/12/08 07:51:23;;;;;;;4.57;1.30;;;3.10;99.90;;;;;;5095713;28;20036;-62
2022/12/08 07:53:50;;;;;;;7.55;1.50;;;3.10;99.90;;;;;;5057421;28;20477;-61
2022/12/08 07:56:16;;;;;;;1.65;0.70;;;3.10;99.90;;;;;;5087096;28;20048;-61
2022/12/08 07:58:44;;;;;;;2.65;0.68;;;3.10;99.90;;;;;;5095199;28;20040;-64
2022/12/08 08:01:26;;;;;;;6.68;1.30;;;3.10;99.90;;;;;;5095380;28;20097;-64
2022/12/08 08:03:53;;;;;;;3.67;0.73;;;3.10;99.90;;;;;;5079927;28;20101;-63
2022/12/08 08:06:19;;;;;;;2.10;0.50;;;3.10;99.90;;;;;;5095287;28;20044;-61
2022/12/08 08:08:44;;;;;;;1.23;0.70;;;3.00;99.90;;;;;;5095115;28;20077;-60
2022/12/08 08:11:10;;;;;;;4.30;1.10;;;3.00;99.90;;;;;;5095033;28;20470;-62
2022/12/08 08:13:36;;;;;;;4.00;1.20;;;3.00;99.90;;;;;;5092737;28;20044;-59
2022/12/08 08:16:06;;;;;;;2.97;1.20;;;3.00;99.90;;;;;;5094242;28;20032;-63
2022/12/08 08:18:33;;;;;;;2.85;1.20;;;3.10;99.90;;;;;;5076985;28;20097;-63
2022/12/08 08:20:59;;;;;;;2.75;0.80;;;3.00;99.90;;;;;;5094888;28;20145;-62
2022/12/08 08:23:25;;;;;;;3.03;1.50;;;3.00;99.90;;;;;;5090871;28;20434;-61
2022/12/08 08:25:50;;;;;;;2.33;1.10;;;3.00;99.90;;;;;;5073031;28;20048;-60
2022/12/08 08:28:16;;;;;;;3.22;1.60;;;3.10;99.90;;;;;;5056627;28;20051;-58
2022/12/08 08:30:42;;;;;;;2.72;1.73;;;3.00;99.90;;;;;;5090360;28;20388;-61
2022/12/08 08:33:07;;;;;;;4.28;2.20;;;3.10;99.90;;;;;;5088753;28;20044;-63
2022/12/08 08:35:33;;;;;;;5.35;2.05;;;3.00;99.90;;;;;;5094638;28;20062;-62
2022/12/08 08:38:00;;;;;;;7.00;2.13;;;3.10;99.90;;;;;;5079675;28;20534;-63
2022/12/08 08:40:26;;;;;;;5.70;2.42;;;3.10;99.90;;;;;;5094957;28;20054;-60
2022/12/08 08:42:51;;;;;;;4.43;2.92;;;3.10;99.90;;;;;;5083398;28;20040;-62
2022/12/08 08:45:17;;;;;;;4.05;2.60;;;3.10;99.90;;;;;;5075329;28;20031;-61
2022/12/08 08:47:43;;;;;;;5.88;3.47;;;3.00;99.90;;;;;;5093765;28;20052;-63
2022/12/08 08:50:10;;;;;;;6.07;4.03;;;3.10;99.90;;;;;;5075863;28;20097;-63
2022/12/08 08:52:35;;;;;;;4.35;2.92;;;3.20;99.90;;;;;;5085866;28;20477;-63
2022/12/08 08:55:01;;;;;;;5.20;2.80;;;3.20;99.90;;;;;;5072202;28;20040;-61
2022/12/08 08:57:26;;;;;;;7.55;3.00;;;3.10;99.90;;;;;;5094325;28;20445;-59
2022/12/08 08:59:52;;;;;;;5.25;2.65;;;3.20;99.90;;;;;;5094142;28;20040;-59
2022/12/08 09:02:19;;;;;;;6.15;3.67;;;3.20;99.90;;;;;;5088007;28;20036;-61
2022/12/08 09:04:46;;;;;;;6.40;3.17;;;3.20;99.90;;;;;;5085632;28;20048;-61
2022/12/08 09:07:12;;;;;;;5.40;2.95;;;3.30;99.90;;;;;;5092819;28;20407;-62
2022/12/08 09:09:39;;;;;;;4.13;2.45;;;3.20;99.90;;;;;;5094146;28;20071;-60
2022/12/08 09:12:10;;;;;;;4.72;2.50;;;3.20;99.90;;;;;;5074096;28;20036;-62
2022/12/08 09:14:36;;;;;;;4.35;2.45;;;3.20;99.90;;;;;;5093759;28;20097;-63
2022/12/08 09:17:02;;;;;;;7.80;2.45;;;3.30;99.90;;;;;;5092600;28;20040;-62
2022/12/08 09:19:27;;;;;;;8.13;2.85;;;3.30;99.90;;;;;;5080747;28;20444;-62
2022/12/08 09:21:53;;;;;;;4.60;2.20;;;3.20;99.90;;;;;;5073476;28;20321;-62
2022/12/08 09:24:18;;;;;;;4.55;2.00;;;3.30;99.90;;;;;;5087084;28;20091;-60
2022/12/08 09:26:45;;;;;;;6.00;1.98;;;3.30;99.90;;;;;;5073099;28;20056;-61
2022/12/08 09:29:12;;;;;;;5.68;2.58;;;3.40;99.90;;;;;;5087072;28;20453;-62
2022/12/08 09:31:38;;;;;;;4.05;2.03;;;3.40;99.90;;;;;;5072865;28;20318;-62
2022/12/08 09:34:04;;;;;;;3.58;1.67;;;3.40;99.90;;;;;;5070277;28;20046;-60
2022/12/08 09:36:30;;;;;;;7.40;2.40;;;3.40;99.90;;;;;;5090172;28;20853;-62
2022/12/08 09:38:56;;;;;;;3.30;1.80;;;3.40;99.90;;;;;;5082309;28;20039;-61
2022/12/08 09:41:48;;;;;;;4.28;1.73;;;3.50;99.90;;;;;;5093224;28;20040;-59
2022/12/08 09:44:43;;;;;;;5.10;2.05;;;3.50;99.90;;;;;;5074463;28;20035;-60
2022/12/08 09:47:24;;;;;;;6.22;1.67;;;3.50;99.90;;;;;;5066150;28;20040;-60
2022/12/08 09:49:58;;;;;;;2.63;1.30;;;3.60;99.90;;;;;;5093139;28;20356;-60
2022/12/08 09:52:29;;;;;;;4.47;1.88;;;3.50;99.90;;;;;;5086760;28;20358;-60
2022/12/08 09:55:00;;;;;;;3.65;1.58;;;3.50;99.90;;;;;;5087477;28;20055;-59
2022/12/08 09:57:25;;;;;;;6.28;1.83;;;3.50;99.90;;;;;;5074966;28;20063;-61
2022/12/08 09:59:59;;;;;;;6.30;2.13;;;3.60;99.90;;;;;;5092824;28;20035;-61
2022/12/08 10:02:28;;;;;;;5.05;1.70;;;3.60;99.90;;;;;;5086199;28;20245;-61
2022/12/08 10:04:55;;;;;;;3.13;1.52;;;3.60;99.90;;;;;;5085322;28;20120;-61
2022/12/08 10:07:26;;;;;;;4.13;1.70;;;3.60;99.90;;;;;;5092709;28;20047;-60
2022/12/08 10:10:18;;;;;;;6.03;1.80;;;3.60;99.90;;;;;;5093028;28;20039;-60
2022/12/08 10:13:04;;;;;;;3.20;1.38;;;3.60;99.90;;;;;;5079840;28;20047;-60
2022/12/08 10:15:58;;;;;;;4.72;1.83;;;3.60;99.90;;;;;;5092768;28;20040;-60
2022/12/08 10:18:29;;;;;;;4.05;1.40;;;3.60;99.90;;;;;;5080479;28;20048;-60
2022/12/08 10:21:10;;;;;;;6.28;2.13;;;3.50;99.90;;;;;;5090313;28;20083;-60
2022/12/08 10:23:39;;;;;;;4.20;1.90;;;3.60;99.90;;;;;;5088950;28;20048;-59
2022/12/08 10:26:11;;;;;;;4.72;2.00;;;3.60;99.90;;;;;;5092005;28;20048;-60
2022/12/08 10:28:36;;;;;;;4.03;1.60;;;3.60;99.90;;;;;;5074137;28;20059;-59
2022/12/08 10:31:03;;;;;;;5.97;1.92;;;3.60;99.90;;;;;;5092331;28;20040;-60
2022/12/08 10:33:31;;;;;;;4.03;1.60;;;3.60;99.90;;;;;;5087101;28;20123;-59
2022/12/08 10:36:01;;;;;;;5.00;1.95;;;3.60;99.90;;;;;;5073980;28;20052;-60
2022/12/08 10:38:32;;;;;;;6.82;3.10;;;3.70;99.90;;;;;;5077926;28;20086;-58
2022/12/08 10:41:11;;;;;;;5.47;2.95;;;3.70;99.90;;;;;;5092133;28;20071;-60
2022/12/08 10:43:38;;;;;;;5.88;2.63;;;3.70;99.90;;;;;;5081597;28;20059;-61
2022/12/08 10:46:14;;;;;;;4.78;2.50;;;3.70;99.90;;;;;;5092290;28;20086;-60
2022/12/08 10:48:53;;;;;;;4.97;2.10;;;3.70;99.90;;;;;;5092053;28;20119;-62
2022/12/08 10:51:36;;;;;;;4.97;2.42;;;3.70;99.90;;;;;;5091054;28;20048;-61
2022/12/08 10:54:04;;;;;;;6.03;2.33;;;3.80;99.90;;;;;;5052926;28;20452;-60
2022/12/08 10:56:32;;;;;;;8.88;3.50;;;3.80;99.90;;;;;;5086082;28;20122;-60
2022/12/08 10:59:17;;;;;;;4.90;2.50;;;3.90;99.90;;;;;;5091894;28;20039;-62
2022/12/08 11:01:46;;;;;;;;;;;3.90;99.90;;;;;;5092151;28;20098;-61
2022/12/08 11:04:34;;;;;;;7.20;2.65;;;3.90;99.90;;;;;;5078458;28;19920;-62
2022/12/08 11:07:02;;;;;;;6.43;2.50;;;3.80;99.90;;;;;;5091735;28;20536;-60
2022/12/08 11:09:47;;;;;;;5.55;2.40;;;3.80;99.90;;;;;;5073944;28;20072;-61
2022/12/08 11:12:15;;;;;;;6.03;2.72;;;3.80;99.90;;;;;;5089883;28;20135;-60
2022/12/08 11:14:43;;;;;;;5.28;2.20;;;3.90;99.90;;;;;;5067006;28;20051;-60
2022/12/08 11:17:16;;;;;;;4.13;2.40;;;3.80;99.90;;;;;;5096094;28;20056;-62
2022/12/08 11:19:53;;;;;;;6.57;2.97;;;3.80;99.90;;;;;;5096345;28;20121;-62
2022/12/08 11:22:23;;;;;;;5.38;2.97;;;3.80;99.90;;;;;;5093375;28;20101;-62
2022/12/08 11:25:09;;;;;;;5.88;2.33;;;3.90;99.90;;;;;;5095867;28;20117;-60
2022/12/08 11:27:36;;;;;;;5.22;2.58;;;3.90;99.90;;;;;;5095649;28;20478;-59
2022/12/08 11:30:26;;;;;;;6.05;2.85;;;4.00;99.90;;;;;;5077747;28;20040;-61
2022/12/08 11:33:00;;;;;;;4.95;2.10;;;4.10;99.90;;;;;;5090168;28;20104;-61
2022/12/08 11:35:40;;;;;;;6.90;2.95;;;4.00;99.90;;;;;;5096011;28;20062;-60
2022/12/08 11:38:12;;;;;;;3.47;2.20;;;4.10;99.90;;;;;;5063616;28;20040;-62
2022/12/08 11:40:41;;;;;;;5.38;1.88;;;4.10;99.90;;;;;;5068532;28;20048;-61
2022/12/08 11:43:36;;;;;;;3.85;1.98;;;4.10;99.90;;;;;;5080856;28;20044;-61
2022/12/08 11:46:10;;;;;;;;;;;4.20;99.90;;;;;;5096099;28;20058;-62
2022/12/08 11:48:46;;;;;;;5.32;1.92;;;4.20;99.90;;;;;;5095652;28;20018;-61
2022/12/08 11:51:51;;;;;;;3.28;1.92;;;4.20;99.90;;;;;;5095740;28;20039;-61
2022/12/08 11:54:34;;;;;;;3.47;2.10;;;4.30;99.90;;;;;;5083909;28;20460;-62
2022/12/08 11:57:11;;;;;;;5.00;2.15;;;4.40;99.90;;;;;;5095752;28;20160;-62
2022/12/08 11:59:45;;;;;;;2.83;1.88;;;4.50;99.90;;;;;;5077563;28;20052;-61
2022/12/08 12:02:23;;;;;;;3.65;1.83;;;4.60;99.90;;;;;;5073929;28;20126;-61
2022/12/08 12:05:08;;;;;;;3.97;1.80;;;4.70;99.90;;;;;;5087384;28;20436;-62
2022/12/08 12:08:07;;;;;;;4.40;1.85;;;4.80;99.90;;;;;;5069161;28;20058;-61
2022/12/08 12:10:49;;;;;;;6.82;1.88;;;4.90;99.90;;;;;;5068937;28;20482;-62
2022/12/08 12:14:10;;;;;;;4.70;1.83;;;5.00;99.90;;;;;;5094848;28;20090;-63
2022/12/08 12:16:45;;;;;;;6.05;2.13;;;5.10;99.90;;;;;;5053264;28;20109;-62
2022/12/08 12:19:16;;;;;;;6.28;2.47;;;5.10;99.90;;;;;;5096068;28;20132;-62
2022/12/08 12:21:52;;;;;;;5.13;2.58;;;5.10;99.90;;;;;;5096705;28;20359;-58
2022/12/08 12:24:22;;;;;;;3.90;1.73;;;5.00;99.90;;;;;;5093037;28;20100;-60
2022/12/08 12:27:13;;;;;;;3.08;1.20;;;5.00;99.90;;;;;;5095829;28;20353;-59
2022/12/08 12:29:48;;;;;;;4.25;1.67;;;4.90;99.90;;;;;;5078416;28;20068;-63
2022/12/08 12:32:13;;;;;;;5.65;2.20;;;4.90;99.90;;;;;;5092398;28;20033;-60
2022/12/08 12:34:57;;;;;;;6.63;2.00;;;4.90;99.90;;;;;;5089852;28;20040;-63
2022/12/08 12:37:26;;;;;;;5.40;1.70;;;4.90;99.90;;;;;;5079501;28;20353;-58
2022/12/08 12:39:52;;;;;;;7.93;2.40;;;4.90;99.90;;;;;;5092644;28;20058;-62
2022/12/08 12:42:45;;;;;;;7.82;2.60;;;4.90;99.90;;;;;;5091666;28;20437;-59
2022/12/08 12:45:16;;;;;;;9.93;2.63;;;4.90;99.90;;;;;;5094257;28;20103;-61
2022/12/08 12:47:54;;;;;;;6.00;2.10;;;4.90;99.90;;;;;;5083946;28;20052;-62
2022/12/08 12:50:31;;;;;;;6.97;2.92;;;4.80;99.90;;;;;;5076564;28;20083;-59
2022/12/08 12:53:23;;;;;;;8.88;3.17;;;4.80;99.90;;;;;;5067686;28;20111;-61
2022/12/08 12:56:02;;;;;;;10.45;2.83;;;4.80;99.90;;;;;;5042858;28;20048;-60
2022/12/08 12:58:28;;;;;;;7.97;3.08;;;4.60;99.90;;;;;;5095318;28;20044;-61
2022/12/08 13:01:09;;;;;;;7.28;2.83;;;4.60;99.90;;;;;;5077195;28;20426;-60
2022/12/08 13:03:44;;;;;;;8.73;3.40;;;4.60;99.90;;;;;;5082064;28;20067;-61
2022/12/08 13:06:12;;;;;;;7.88;2.80;;;4.70;99.90;;;;;;5095113;28;20044;-61
2022/12/08 13:08:57;;;;;;;7.85;2.78;;;4.60;99.90;;;;;;5095018;28;20040;-60
2022/12/08 13:11:23;;;;;;;5.40;2.45;;;4.70;99.90;;;;;;5095141;28;20075;-61
2022/12/08 13:14:02;;;;;;;9.00;2.97;;;4.60;99.90;;;;;;5077556;28;20369;-58
2022/12/08 13:16:33;;;;;;;8.23;2.67;;;4.60;99.90;;;;;;5084863;28;20036;-62
2022/12/08 13:19:02;;;;;;;4.65;2.33;;;4.50;99.90;;;;;;5094817;28;20040;-59
2022/12/08 13:21:37;;;;;;;6.03;1.85;;;4.40;99.90;;;;;;5085303;28;20129;-62
2022/12/08 13:24:25;;;;;;;4.55;1.65;;;4.40;99.90;;;;;;5085724;28;20040;-63
2022/12/08 13:27:03;;;;;;;3.08;1.70;;;4.30;99.90;;;;;;5048286;28;20055;-62
2022/12/08 13:29:33;;;;;;;3.90;1.70;;;4.30;99.90;;;;;;5080015;28;20140;-60